Time;durP1;ratioP1;P1;durP2;ratioP2;P2;SDS_P1;SDS_P2;PMS_P1;PMS_P2;Temp;Humidity;BMP_temperature;BMP_pressure;BME280_temperature;BME280_humidity;BME280_pressure;Samples;Min_cycle;Max_cycle;Signal;HPM_P1;HPM_P2
2022/03/04 00:01:26;;;;;;;4.15;2.40;;;17.80;55.60;;;;;;10416162;28;20163;-56
2022/03/04 00:06:27;;;;;;;3.33;2.30;;;17.70;55.70;;;;;;10414571;28;20471;-54
2022/03/04 00:11:27;;;;;;;4.18;2.63;;;17.70;55.80;;;;;;10413345;28;20538;-55
2022/03/04 00:16:28;;;;;;;3.53;2.13;;;17.70;55.70;;;;;;10413004;28;20044;-56
2022/03/04 00:21:29;;;;;;;3.70;2.25;;;17.60;55.70;;;;;;10429510;28;20474;-55
2022/03/04 00:26:30;;;;;;;5.10;2.78;;;17.60;55.90;;;;;;10414285;28;20033;-55
2022/03/04 00:31:32;;;;;;;2.67;1.90;;;17.60;55.70;;;;;;10412125;28;20597;-54
2022/03/04 00:36:35;;;;;;;3.45;2.30;;;17.60;55.70;;;;;;10412560;28;20053;-55
2022/03/04 00:41:36;;;;;;;3.25;2.35;;;17.70;55.80;;;;;;10412017;28;20393;-55
2022/03/04 00:46:37;;;;;;;3.03;2.00;;;17.70;55.60;;;;;;10418066;28;20029;-55
2022/03/04 00:51:38;;;;;;;4.00;2.75;;;17.70;55.50;;;;;;10428572;28;20025;-55
2022/03/04 00:56:39;;;;;;;3.75;2.30;;;17.70;55.70;;;;;;10421239;28;20017;-55
2022/03/04 01:01:40;;;;;;;3.38;2.65;;;17.70;55.50;;;;;;10411392;28;20034;-55
2022/03/04 01:06:41;;;;;;;3.13;2.10;;;17.80;55.30;;;;;;10428432;28;20080;-55
2022/03/04 01:11:41;;;;;;;3.28;2.00;;;17.70;55.30;;;;;;10398175;28;20123;-55
2022/03/04 01:16:42;;;;;;;3.03;2.28;;;17.70;55.40;;;;;;10412717;28;20076;-55
2022/03/04 01:21:43;;;;;;;2.97;2.03;;;17.70;55.40;;;;;;10412688;28;20029;-55
2022/03/04 01:26:43;;;;;;;3.00;1.90;;;17.70;55.30;;;;;;10400916;28;20443;-55
2022/03/04 01:31:44;;;;;;;3.13;2.28;;;17.70;55.40;;;;;;10402520;28;20031;-54
2022/03/04 01:36:45;;;;;;;2.85;1.73;;;17.70;55.20;;;;;;10411342;28;20096;-55
2022/03/04 01:41:45;;;;;;;4.03;2.45;;;17.70;55.40;;;;;;10414291;28;20121;-55
2022/03/04 01:46:46;;;;;;;2.92;2.10;;;17.70;55.30;;;;;;10419131;28;20113;-55
2022/03/04 01:51:47;;;;;;;3.55;1.90;;;17.70;55.10;;;;;;10418888;28;20041;-55
2022/03/04 01:56:48;;;;;;;3.03;1.90;;;17.70;55.10;;;;;;10426135;28;20044;-55
2022/03/04 02:01:48;;;;;;;2.67;2.00;;;17.70;55.00;;;;;;10419003;28;20586;-55
2022/03/04 02:06:50;;;;;;;2.63;2.10;;;17.70;55.30;;;;;;10434867;28;20355;-55
2022/03/04 02:11:51;;;;;;;2.85;2.30;;;17.70;55.20;;;;;;10404050;28;20098;-56
2022/03/04 02:16:54;;;;;;;3.78;2.25;;;17.70;55.30;;;;;;10417713;28;20116;-55
2022/03/04 02:21:58;;;;;;;3.00;2.35;;;17.70;55.10;;;;;;10428397;28;20375;-55
2022/03/04 02:27:01;;;;;;;2.95;2.17;;;17.80;54.90;;;;;;10416929;28;20037;-55
2022/03/04 02:32:03;;;;;;;2.95;1.92;;;17.80;54.60;;;;;;10417055;28;20037;-54
2022/03/04 02:37:04;;;;;;;3.72;1.85;;;17.90;54.50;;;;;;10433367;28;20121;-56
2022/03/04 02:42:05;;;;;;;4.93;2.38;;;17.80;54.60;;;;;;10416996;28;20029;-55
2022/03/04 02:47:06;;;;;;;3.25;2.17;;;17.80;54.60;;;;;;10433025;28;20087;-55
2022/03/04 02:52:06;;;;;;;3.03;1.65;;;17.80;54.60;;;;;;10431436;28;20060;-55
2022/03/04 02:57:07;;;;;;;3.00;1.80;;;17.80;54.60;;;;;;10424080;28;20036;-55
2022/03/04 03:02:08;;;;;;;2.67;1.75;;;17.80;54.50;;;;;;10415594;28;20057;-55
2022/03/04 03:07:09;;;;;;;2.95;1.90;;;17.90;54.40;;;;;;10417004;28;20092;-55
2022/03/04 03:12:09;;;;;;;2.65;1.83;;;17.90;54.40;;;;;;10432428;28;20507;-55
2022/03/04 03:17:10;;;;;;;2.58;1.98;;;17.80;54.40;;;;;;10416680;28;20516;-55
2022/03/04 03:22:12;;;;;;;1.92;1.60;;;17.90;54.40;;;;;;10416670;28;20037;-55
2022/03/04 03:27:12;;;;;;;3.05;2.10;;;17.90;54.40;;;;;;10416445;28;20032;-55
2022/03/04 03:32:14;;;;;;;3.13;1.92;;;17.80;54.40;;;;;;10425137;28;20032;-55
2022/03/04 03:37:14;;;;;;;2.45;1.80;;;17.80;54.50;;;;;;10431138;28;20049;-55
2022/03/04 03:42:15;;;;;;;2.85;2.05;;;17.80;54.30;;;;;;10431036;28;20405;-56
2022/03/04 03:47:16;;;;;;;3.17;1.85;;;17.90;54.20;;;;;;10415371;28;20530;-54
2022/03/04 03:52:16;;;;;;;2.78;1.90;;;17.90;54.00;;;;;;10415376;28;20079;-55
2022/03/04 03:57:17;;;;;;;3.33;2.10;;;18.00;53.90;;;;;;10428101;28;20032;-55
2022/03/04 04:02:18;;;;;;;2.70;2.13;;;17.90;53.90;;;;;;10425844;28;20104;-55
2022/03/04 04:07:18;;;;;;;2.95;2.08;;;17.90;54.00;;;;;;10413552;28;20045;-56
2022/03/04 04:12:19;;;;;;;3.45;2.15;;;17.80;54.20;;;;;;10429689;28;20057;-55
2022/03/04 04:17:20;;;;;;;2.45;1.65;;;17.80;54.00;;;;;;10413274;28;20164;-55
2022/03/04 04:22:21;;;;;;;3.03;1.92;;;17.80;54.00;;;;;;10412927;28;20037;-55
2022/03/04 04:27:21;;;;;;;2.40;1.50;;;17.80;54.10;;;;;;10412670;28;20029;-55
2022/03/04 04:32:22;;;;;;;2.95;1.98;;;17.90;53.80;;;;;;10413448;28;20060;-55
2022/03/04 04:37:23;;;;;;;2.10;1.70;;;18.00;53.60;;;;;;10428878;28;20041;-56
2022/03/04 04:42:24;;;;;;;2.45;1.77;;;18.00;53.40;;;;;;10413198;28;20112;-55
2022/03/04 04:47:26;;;;;;;3.47;2.22;;;17.90;53.60;;;;;;10405236;28;20026;-56
2022/03/04 04:52:26;;;;;;;2.20;1.85;;;17.80;53.80;;;;;;10412984;28;20034;-55
2022/03/04 04:57:27;;;;;;;3.35;2.17;;;17.80;53.70;;;;;;10421631;28;20174;-56
2022/03/04 05:02:28;;;;;;;3.17;2.22;;;17.80;53.90;;;;;;10418071;28;20026;-55
2022/03/04 05:07:29;;;;;;;2.78;1.77;;;17.80;53.70;;;;;;10410934;28;20033;-55
2022/03/04 05:12:30;;;;;;;3.03;1.98;;;18.00;53.40;;;;;;10412238;28;20029;-55
2022/03/04 05:17:30;;;;;;;3.22;2.03;;;17.90;53.40;;;;;;10416082;28;20031;-55
2022/03/04 05:22:31;;;;;;;2.70;2.10;;;17.90;53.30;;;;;;10408123;28;20120;-55
2022/03/04 05:27:32;;;;;;;2.33;1.65;;;17.90;53.40;;;;;;10402686;28;20040;-55
2022/03/04 05:32:32;;;;;;;3.03;2.13;;;17.90;53.40;;;;;;10408867;28;20080;-56
2022/03/04 05:37:33;;;;;;;3.63;2.00;;;17.80;54.00;;;;;;10431714;28;20080;-55
2022/03/04 05:42:34;;;;;;;6.75;3.00;;;17.90;53.20;;;;;;10417126;28;20041;-55
2022/03/04 05:47:35;;;;;;;3.33;2.50;;;17.90;52.90;;;;;;10421182;28;20025;-56
2022/03/04 05:52:36;;;;;;;7.22;2.47;;;18.20;52.80;;;;;;10429485;28;20148;-55
2022/03/04 05:57:36;;;;;;;8.00;2.30;;;18.40;52.50;;;;;;10419032;28;20017;-56
2022/03/04 06:02:37;;;;;;;6.97;2.40;;;18.50;53.40;;;;;;10397346;28;20073;-56
2022/03/04 06:07:37;;;;;;;4.68;2.53;;;18.50;53.50;;;;;;10416772;28;20508;-56
2022/03/04 06:12:38;;;;;;;9.65;3.67;;;18.60;53.70;;;;;;10421146;28;20069;-56
2022/03/04 06:17:48;;;;;;;10.25;3.25;;;18.80;53.80;;;;;;10419293;28;20033;-56
2022/03/04 06:22:49;;;;;;;14.70;3.33;;;18.90;52.70;;;;;;10417701;28;20029;-55
2022/03/04 06:27:55;;;;;;;7.38;2.85;;;18.90;52.90;;;;;;10411377;28;20084;-57
2022/03/04 06:33:30;;;;;;;7.35;2.47;;;19.00;52.50;;;;;;10421094;28;20056;-57
2022/03/04 06:38:18;;;;;;;14.60;4.00;;;19.20;52.20;;;;;;10417494;28;20041;-55
2022/03/04 06:43:19;;;;;;;17.27;3.53;;;19.10;52.40;;;;;;10416668;28;20040;-57
2022/03/04 06:48:22;;;;;;;9.80;2.78;;;19.00;53.00;;;;;;10417364;28;20071;-55
2022/03/04 06:53:24;;;;;;;12.85;3.53;;;19.00;53.30;;;;;;10414273;28;20033;-56
2022/03/04 06:58:25;;;;;;;10.45;3.42;;;18.90;53.50;;;;;;10416368;28;20481;-58
2022/03/04 07:03:26;;;;;;;9.13;3.47;;;18.80;53.70;;;;;;10412300;28;20033;-58
2022/03/04 07:08:27;;;;;;;8.77;3.15;;;18.50;54.00;;;;;;10398112;28;20032;-58
2022/03/04 07:13:27;;;;;;;14.52;2.88;;;18.30;54.60;;;;;;10406146;28;20033;-57
2022/03/04 07:18:29;;;;;;;8.85;2.78;;;18.20;55.00;;;;;;10412373;28;20105;-57
2022/03/04 07:23:30;;;;;;;11.45;2.83;;;18.30;54.50;;;;;;10399378;28;20030;-57
2022/03/04 07:28:31;;;;;;;10.90;2.78;;;18.30;54.50;;;;;;10412855;28;20037;-57
2022/03/04 07:33:33;;;;;;;15.82;3.33;;;18.50;54.00;;;;;;10414265;28;20072;-57
2022/03/04 07:38:34;;;;;;;14.02;2.75;;;18.30;55.90;;;;;;10413391;28;20063;-57
2022/03/04 07:43:34;;;;;;;10.15;2.58;;;18.40;54.60;;;;;;10430228;28;20033;-57
2022/03/04 07:48:35;;;;;;;13.52;3.13;;;18.40;54.60;;;;;;10417886;28;20068;-57
2022/03/04 07:53:36;;;;;;;15.63;3.53;;;18.40;54.50;;;;;;10418868;28;20029;-57
2022/03/04 07:58:37;;;;;;;17.73;4.70;;;18.40;54.70;;;;;;10415742;28;20057;-58
2022/03/04 08:03:38;;;;;;;21.80;4.57;;;18.30;55.00;;;;;;10430090;28;20033;-56
2022/03/04 08:08:39;;;;;;;19.40;5.40;;;18.30;55.00;;;;;;10403124;28;20022;-57
2022/03/04 08:13:40;;;;;;;14.05;3.58;;;18.20;55.40;;;;;;10419783;28;20092;-57
2022/03/04 08:18:41;;;;;;;21.85;4.85;;;18.40;55.10;;;;;;10412489;28;20048;-60
2022/03/04 08:23:41;;;;;;;19.75;6.07;;;18.30;55.40;;;;;;10412772;28;20030;-57
2022/03/04 08:28:42;;;;;;;25.33;7.50;;;18.20;56.30;;;;;;10411870;28;20112;-57
2022/03/04 08:33:45;;;;;;;34.92;6.95;;;18.30;57.20;;;;;;10401329;28;20030;-57
2022/03/04 08:38:47;;;;;;;30.63;5.82;;;18.20;55.80;;;;;;10409334;28;20052;-56
2022/03/04 08:43:50;;;;;;;24.95;5.85;;;18.10;55.40;;;;;;10407526;28;20052;-55
2022/03/04 08:48:51;;;;;;;23.60;5.72;;;18.10;54.50;;;;;;10420689;28;20029;-55
2022/03/04 08:53:53;;;;;;;27.38;6.80;;;18.10;54.00;;;;;;10409913;28;20109;-55
2022/03/04 08:58:54;;;;;;;19.08;6.72;;;18.10;53.60;;;;;;10411842;28;20021;-58
2022/03/04 09:03:55;;;;;;;19.48;6.18;;;18.10;53.10;;;;;;10410913;28;20045;-55
2022/03/04 09:08:56;;;;;;;21.30;5.25;;;18.20;52.30;;;;;;10419195;28;20026;-57
2022/03/04 09:13:57;;;;;;;15.88;5.18;;;18.20;52.90;;;;;;10410513;28;20500;-56
2022/03/04 09:18:58;;;;;;;14.80;4.90;;;18.30;53.30;;;;;;10410609;28;20053;-56
2022/03/04 09:23:59;;;;;;;14.15;5.35;;;18.20;54.30;;;;;;10411305;28;20057;-56
2022/03/04 09:29:00;;;;;;;15.25;5.75;;;18.20;54.40;;;;;;10411311;28;20144;-59
2022/03/04 09:34:00;;;;;;;10.18;4.55;;;18.10;55.10;;;;;;10421704;28;20294;-56
2022/03/04 09:39:01;;;;;;;11.93;4.55;;;18.10;55.60;;;;;;10410454;28;20512;-54
2022/03/04 09:44:02;;;;;;;9.85;5.18;;;18.10;56.00;;;;;;10410947;28;20128;-55
2022/03/04 09:49:03;;;;;;;14.70;4.53;;;18.00;56.50;;;;;;10411951;28;20022;-55
2022/03/04 09:54:04;;;;;;;17.40;6.18;;;18.00;56.90;;;;;;10427162;28;20030;-55
2022/03/04 09:59:05;;;;;;;25.23;6.88;;;18.00;57.50;;;;;;10413777;28;20029;-53
2022/03/04 10:04:06;;;;;;;26.80;7.32;;;18.10;58.40;;;;;;10428525;28;20022;-56
2022/03/04 10:09:07;;;;;;;20.48;6.47;;;18.10;58.10;;;;;;10419158;28;20517;-54
2022/03/04 10:14:13;;;;;;;26.25;7.03;;;18.10;57.20;;;;;;10434017;28;20028;-55
2022/03/04 10:19:17;;;;;;;28.65;6.05;;;18.10;57.40;;;;;;10407638;28;20697;-55
2022/03/04 10:24:34;;;;;;;19.70;5.60;;;18.10;57.50;;;;;;10417806;28;20029;-55
2022/03/04 10:29:48;;;;;;;21.95;6.03;;;18.10;57.20;;;;;;10415792;28;20041;-55
2022/03/04 10:35:03;;;;;;;14.15;4.95;;;18.10;57.00;;;;;;10417474;28;20394;-56
2022/03/04 10:40:13;;;;;;;13.73;5.35;;;18.00;57.00;;;;;;10432601;28;20033;-57
2022/03/04 10:45:20;;;;;;;15.70;4.30;;;18.00;56.90;;;;;;10417445;28;20026;-56
2022/03/04 10:50:52;;;;;;;15.60;4.97;;;18.00;56.70;;;;;;10432011;28;20362;-56
2022/03/04 10:56:05;;;;;;;13.25;4.53;;;18.00;56.90;;;;;;10418831;28;20429;-56
2022/03/04 11:01:16;;;;;;;14.10;5.30;;;18.00;56.80;;;;;;10431788;28;20033;-54
2022/03/04 11:06:17;;;;;;;16.25;5.90;;;18.00;56.20;;;;;;10402795;28;20029;-55
2022/03/04 11:11:17;;;;;;;15.30;5.43;;;18.00;56.50;;;;;;10415935;28;20111;-56
2022/03/04 11:16:18;;;;;;;11.82;6.22;;;18.00;56.40;;;;;;10415197;28;20478;-58
2022/03/04 11:21:19;;;;;;;20.05;6.00;;;18.00;56.10;;;;;;10415109;28;20039;-56
2022/03/04 11:26:21;;;;;;;27.27;6.35;;;18.10;56.00;;;;;;10414912;28;20124;-56
2022/03/04 11:31:28;;;;;;;21.40;6.45;;;18.10;56.00;;;;;;10413976;28;20025;-56
2022/03/04 11:36:32;;;;;;;13.88;5.80;;;18.10;55.90;;;;;;10413254;28;20544;-56
2022/03/04 11:41:45;;;;;;;16.92;6.25;;;18.10;56.00;;;;;;10413558;28;20393;-55
2022/03/04 11:47:08;;;;;;;19.52;5.78;;;18.10;56.00;;;;;;10429722;28;20032;-56
2022/03/04 11:52:09;;;;;;;14.52;5.25;;;18.20;56.30;;;;;;10414612;28;20026;-55
2022/03/04 11:57:21;;;;;;;16.48;6.38;;;18.20;56.50;;;;;;10416896;28;20370;-56
2022/03/04 12:02:42;;;;;;;17.30;5.47;;;18.20;56.70;;;;;;10413768;28;20156;-55
2022/03/04 12:07:51;;;;;;;19.40;5.55;;;18.30;57.00;;;;;;10412577;28;20030;-56
2022/03/04 12:13:07;;;;;;;20.30;5.43;;;18.30;57.30;;;;;;10429345;28;20529;-56
2022/03/04 12:18:31;;;;;;;11.10;4.40;;;18.30;57.50;;;;;;10414030;28;20026;-57
2022/03/04 12:23:41;;;;;;;15.00;4.80;;;18.30;57.70;;;;;;10413174;28;20109;-55
2022/03/04 12:29:09;;;;;;;10.43;4.57;;;18.30;57.70;;;;;;10412911;28;20030;-55
2022/03/04 12:34:22;;;;;;;13.50;4.53;;;18.30;57.80;;;;;;10411044;28;20036;-56
2022/03/04 12:39:23;;;;;;;11.98;5.15;;;18.30;57.60;;;;;;10409999;28;20128;-57
2022/03/04 12:44:27;;;;;;;12.07;3.92;;;18.30;57.70;;;;;;10428239;28;20044;-55
2022/03/04 12:49:33;;;;;;;19.05;5.07;;;18.30;57.90;;;;;;10412098;28;20029;-55
2022/03/04 12:54:33;;;;;;;14.93;6.07;;;18.30;58.00;;;;;;10411515;28;20470;-59
2022/03/04 12:59:49;;;;;;;19.23;4.63;;;18.40;58.10;;;;;;10403894;28;20026;-56
2022/03/04 13:05:02;;;;;;;21.50;4.70;;;18.40;58.20;;;;;;10409426;28;20033;-56
2022/03/04 13:10:05;;;;;;;16.88;4.72;;;18.30;57.60;;;;;;10427686;28;20022;-56
2022/03/04 13:15:11;;;;;;;14.85;4.70;;;18.30;57.50;;;;;;10412449;28;20382;-55
2022/03/04 13:20:12;;;;;;;11.52;3.78;;;18.30;57.50;;;;;;10410973;28;20030;-55
2022/03/04 13:25:13;;;;;;;14.70;5.38;;;18.30;57.40;;;;;;10410943;28;20033;-56
2022/03/04 13:30:13;;;;;;;13.07;3.83;;;18.30;57.40;;;;;;10427537;28;20034;-56
2022/03/04 13:35:16;;;;;;;10.98;4.38;;;18.30;57.40;;;;;;10426753;28;20044;-55
2022/03/04 13:40:22;;;;;;;7.88;3.70;;;18.20;57.40;;;;;;10435317;28;20553;-56
2022/03/04 13:45:38;;;;;;;12.23;4.30;;;18.30;57.30;;;;;;10435240;28;20053;-56
2022/03/04 13:50:40;;;;;;;10.20;3.95;;;18.30;57.20;;;;;;10434582;28;20033;-56
2022/03/04 13:56:06;;;;;;;10.27;4.35;;;18.20;57.20;;;;;;10407355;28;20057;-55
2022/03/04 14:01:20;;;;;;;9.75;3.33;;;18.30;57.10;;;;;;10417562;28;20050;-56
2022/03/04 14:06:25;;;;;;;7.13;3.88;;;18.30;57.20;;;;;;10388789;28;20512;-55
2022/03/04 14:11:25;;;;;;;8.43;2.88;;;18.30;57.10;;;;;;10434498;28;20542;-56
2022/03/04 14:16:28;;;;;;;7.32;3.03;;;18.30;57.10;;;;;;10404999;28;20091;-55
2022/03/04 14:21:29;;;;;;;5.93;3.15;;;18.30;56.90;;;;;;10433633;28;20029;-55
2022/03/04 14:26:29;;;;;;;9.65;4.13;;;18.30;57.00;;;;;;10418364;28;20113;-55
2022/03/04 14:31:30;;;;;;;20.67;5.05;;;18.20;57.00;;;;;;10421027;28;20057;-56
2022/03/04 14:36:31;;;;;;;17.50;5.97;;;18.30;57.40;;;;;;10417223;28;20045;-56
2022/03/04 14:41:31;;;;;;;20.30;4.18;;;18.40;57.60;;;;;;10418623;28;20522;-56
2022/03/04 14:46:34;;;;;;;27.85;6.82;;;18.40;57.90;;;;;;10433316;28;20159;-55
2022/03/04 14:51:40;;;;;;;26.02;4.93;;;18.40;58.20;;;;;;10417705;28;20029;-55
2022/03/04 14:56:40;;;;;;;15.48;5.20;;;18.40;58.50;;;;;;10420214;28;20036;-56
2022/03/04 15:01:41;;;;;;;16.92;4.65;;;18.30;59.50;;;;;;10417718;28;20051;-60
2022/03/04 15:06:42;;;;;;;11.50;4.07;;;18.30;59.20;;;;;;10415269;28;20051;-56
2022/03/04 15:11:42;;;;;;;19.23;5.05;;;18.30;59.00;;;;;;10416153;28;20040;-56
2022/03/04 15:16:43;;;;;;;16.95;3.88;;;18.30;59.10;;;;;;10416437;28;20040;-56
2022/03/04 15:21:45;;;;;;;19.42;5.40;;;18.30;59.20;;;;;;10432178;28;20116;-55
2022/03/04 15:26:46;;;;;;;18.38;4.75;;;18.30;59.20;;;;;;10432203;28;20025;-55
2022/03/04 15:31:47;;;;;;;26.63;5.22;;;18.30;59.30;;;;;;10416271;28;20037;-56
2022/03/04 15:36:48;;;;;;;13.73;4.72;;;18.30;59.60;;;;;;10431454;28;20478;-55
2022/03/04 15:41:49;;;;;;;18.77;4.85;;;18.20;59.80;;;;;;10416320;28;20029;-56
2022/03/04 15:46:51;;;;;;;20.35;5.50;;;18.20;59.80;;;;;;10415546;28;20428;-55
2022/03/04 15:51:53;;;;;;;15.50;3.95;;;18.20;59.90;;;;;;10429850;28;20044;-56
2022/03/04 15:56:54;;;;;;;20.67;4.53;;;18.10;60.00;;;;;;10432280;28;20131;-54
2022/03/04 16:01:55;;;;;;;44.42;7.72;;;18.10;60.30;;;;;;10425215;28;20083;-57
2022/03/04 16:06:56;;;;;;;46.58;7.90;;;18.00;60.20;;;;;;10413130;28;20496;-55
2022/03/04 16:11:56;;;;;;;40.85;7.32;;;17.90;60.50;;;;;;10414200;28;20425;-56
2022/03/04 16:16:57;;;;;;;41.97;6.93;;;18.00;61.00;;;;;;10412317;28;20022;-56
2022/03/04 16:21:58;;;;;;;23.48;6.05;;;17.90;60.30;;;;;;10414248;28;20065;-56
2022/03/04 16:26:59;;;;;;;25.13;6.38;;;17.70;60.10;;;;;;10408403;28;20037;-56
2022/03/04 16:32:01;;;;;;;39.50;7.15;;;17.60;60.10;;;;;;10412280;28;20038;-56
2022/03/04 16:37:02;;;;;;;29.70;6.90;;;17.60;60.30;;;;;;10402526;28;20045;-56
2022/03/04 16:42:03;;;;;;;28.52;5.53;;;17.70;60.60;;;;;;10395072;28;20036;-57
2022/03/04 16:47:07;;;;;;;28.13;7.32;;;17.70;60.60;;;;;;10413358;28;20087;-57
2022/03/04 16:52:08;;;;;;;19.70;6.30;;;17.70;60.90;;;;;;10409405;28;20108;-56
2022/03/04 16:57:09;;;;;;;18.48;5.68;;;18.00;60.40;;;;;;10406707;28;20034;-56
2022/03/04 17:02:09;;;;;;;21.13;7.38;;;18.10;60.20;;;;;;10401185;28;20064;-56
2022/03/04 17:07:12;;;;;;;20.92;5.72;;;18.10;59.60;;;;;;10381298;28;20037;-56
2022/03/04 17:12:13;;;;;;;20.88;5.40;;;18.20;58.60;;;;;;10409888;28;20083;-57
2022/03/04 17:17:15;;;;;;;13.38;4.95;;;18.50;58.40;;;;;;10415330;28;20021;-57
2022/03/04 17:22:17;;;;;;;17.73;5.72;;;18.50;60.80;;;;;;10410689;28;20450;-56
2022/03/04 17:27:18;;;;;;;13.93;5.55;;;18.30;61.10;;;;;;10411396;28;20029;-57
2022/03/04 17:32:19;;;;;;;15.15;5.13;;;18.20;61.50;;;;;;10411365;28;20044;-56
2022/03/04 17:37:20;;;;;;;10.25;4.30;;;18.00;60.90;;;;;;10411627;28;20033;-57
2022/03/04 17:42:21;;;;;;;14.02;4.25;;;18.00;61.60;;;;;;10410826;28;20120;-56
2022/03/04 17:47:21;;;;;;;14.77;3.92;;;17.90;61.10;;;;;;10405405;28;20029;-58
2022/03/04 17:52:22;;;;;;;22.17;4.78;;;17.90;61.00;;;;;;10410589;28;20034;-58
2022/03/04 17:57:23;;;;;;;15.88;4.72;;;17.80;61.00;;;;;;10408892;28;20409;-57
2022/03/04 18:02:23;;;;;;;16.80;5.28;;;17.70;61.20;;;;;;10409275;28;20371;-57
2022/03/04 18:07:24;;;;;;;13.60;4.32;;;17.70;61.50;;;;;;10398272;28;20461;-56
2022/03/04 18:12:25;;;;;;;11.52;4.80;;;17.70;61.00;;;;;;10421734;28;20083;-56
2022/03/04 18:17:26;;;;;;;12.20;4.05;;;17.60;60.80;;;;;;10407617;28;20079;-56
2022/03/04 18:22:27;;;;;;;6.05;3.70;;;17.60;60.80;;;;;;10413084;28;20107;-56
2022/03/04 18:27:28;;;;;;;10.60;4.18;;;17.70;60.30;;;;;;10408619;28;20875;-57
2022/03/04 18:32:28;;;;;;;6.30;3.05;;;17.70;60.00;;;;;;10416467;28;20049;-57
2022/03/04 18:37:29;;;;;;;8.05;3.80;;;17.70;59.60;;;;;;10423422;28;20034;-55
2022/03/04 18:42:30;;;;;;;8.73;3.83;;;18.00;58.90;;;;;;10417346;28;20082;-56
2022/03/04 18:47:30;;;;;;;9.13;3.75;;;18.40;57.60;;;;;;10417824;28;20115;-56
2022/03/04 18:52:31;;;;;;;9.20;3.92;;;18.60;57.00;;;;;;10416261;28;20506;-56
2022/03/04 18:57:32;;;;;;;12.30;4.75;;;18.60;58.70;;;;;;10417903;28;20032;-56
2022/03/04 19:02:32;;;;;;;6.25;4.30;;;18.60;60.00;;;;;;10420898;28;20104;-56
2022/03/04 19:07:33;;;;;;;7.45;3.60;;;18.80;59.10;;;;;;10397409;28;20425;-57
2022/03/04 19:12:37;;;;;;;7.88;4.43;;;18.90;59.10;;;;;;10422706;28;20080;-56
2022/03/04 19:17:38;;;;;;;10.07;4.40;;;18.90;58.70;;;;;;10422076;28;20017;-57
2022/03/04 19:22:39;;;;;;;7.72;4.40;;;18.80;58.80;;;;;;10413329;28;20033;-57
2022/03/04 19:27:40;;;;;;;6.38;3.97;;;18.70;58.80;;;;;;10412823;28;20385;-58
2022/03/04 19:32:43;;;;;;;8.63;3.95;;;18.80;59.00;;;;;;10414097;28;20462;-57
2022/03/04 19:37:44;;;;;;;8.07;3.60;;;18.40;59.90;;;;;;10429035;28;20069;-57
2022/03/04 19:42:46;;;;;;;7.85;4.18;;;18.20;60.30;;;;;;10427934;28;20430;-58
2022/03/04 19:47:47;;;;;;;12.10;5.20;;;18.20;60.80;;;;;;10420410;28;20034;-57
2022/03/04 19:52:47;;;;;;;6.97;3.47;;;18.10;60.90;;;;;;10414975;28;20068;-57
2022/03/04 19:57:48;;;;;;;16.67;4.18;;;18.00;61.00;;;;;;10413060;28;20029;-57
2022/03/04 20:02:49;;;;;;;6.38;3.55;;;17.90;61.10;;;;;;10400883;28;20052;-57
2022/03/04 20:07:49;;;;;;;7.35;3.80;;;17.90;61.20;;;;;;10413174;28;20072;-57
2022/03/04 20:12:50;;;;;;;10.07;4.68;;;17.90;61.90;;;;;;10428411;28;20449;-57
2022/03/04 20:17:51;;;;;;;4.97;3.67;;;17.80;62.00;;;;;;10406362;28;20033;-56
2022/03/04 20:22:52;;;;;;;8.73;3.50;;;17.80;62.20;;;;;;10413354;28;20033;-56
2022/03/04 20:27:54;;;;;;;5.15;3.20;;;17.70;62.00;;;;;;10412803;28;20029;-57
2022/03/04 20:32:55;;;;;;;6.70;4.45;;;17.60;61.90;;;;;;10423423;28;20034;-57
2022/03/04 20:37:56;;;;;;;6.38;3.25;;;17.50;61.60;;;;;;10413954;28;20482;-57
2022/03/04 20:42:57;;;;;;;5.35;3.40;;;17.40;61.50;;;;;;10413745;28;20086;-57
2022/03/04 20:47:58;;;;;;;4.75;2.70;;;17.30;61.50;;;;;;10412480;28;20037;-57
2022/03/04 20:53:00;;;;;;;7.03;3.22;;;17.30;61.60;;;;;;10419284;28;20052;-56
2022/03/04 20:58:00;;;;;;;10.82;3.25;;;17.20;61.70;;;;;;10396686;28;20029;-57
2022/03/04 21:03:01;;;;;;;4.68;2.75;;;17.20;61.80;;;;;;10410821;28;20040;-58
2022/03/04 21:08:02;;;;;;;5.22;3.03;;;17.20;61.80;;;;;;10410711;28;20581;-57
2022/03/04 21:13:03;;;;;;;4.78;2.63;;;17.20;61.50;;;;;;10409549;28;20048;-57
2022/03/04 21:18:03;;;;;;;7.32;3.47;;;17.20;61.10;;;;;;10411210;28;20033;-58
2022/03/04 21:23:04;;;;;;;5.57;3.00;;;17.30;60.80;;;;;;10411079;28;20109;-57
2022/03/04 21:28:05;;;;;;;5.25;3.63;;;17.30;60.40;;;;;;10411885;28;20036;-57
2022/03/04 21:33:06;;;;;;;4.20;2.80;;;17.40;60.30;;;;;;10412447;28;20061;-56
2022/03/04 21:38:07;;;;;;;5.18;2.80;;;17.40;60.10;;;;;;10412508;28;20080;-57
2022/03/04 21:43:08;;;;;;;5.70;2.80;;;17.40;59.80;;;;;;10427910;28;20156;-57
2022/03/04 21:48:10;;;;;;;4.30;2.60;;;17.40;59.60;;;;;;10398938;28;20367;-57
2022/03/04 21:53:12;;;;;;;4.22;2.85;;;17.40;60.30;;;;;;10410886;28;20040;-57
2022/03/04 21:58:13;;;;;;;3.95;2.45;;;17.40;59.60;;;;;;10416074;28;20021;-57
2022/03/04 22:03:13;;;;;;;8.23;3.08;;;17.40;59.50;;;;;;10419845;28;20122;-57
2022/03/04 22:08:14;;;;;;;4.25;1.92;;;17.40;59.40;;;;;;10434948;28;20047;-57
2022/03/04 22:13:15;;;;;;;5.05;2.90;;;17.40;59.30;;;;;;10419596;28;20485;-57
2022/03/04 22:18:15;;;;;;;3.97;2.88;;;17.40;59.10;;;;;;10434669;28;20379;-57
2022/03/04 22:23:16;;;;;;;5.35;2.78;;;17.40;59.10;;;;;;10418075;28;20112;-56
2022/03/04 22:28:17;;;;;;;4.15;2.40;;;17.40;58.90;;;;;;10419060;28;20486;-57
2022/03/04 22:33:18;;;;;;;3.50;2.55;;;17.40;58.80;;;;;;10416825;28;20181;-57
2022/03/04 22:38:19;;;;;;;4.47;2.72;;;17.40;58.70;;;;;;10418751;28;20125;-58
2022/03/04 22:43:20;;;;;;;5.78;2.60;;;17.50;58.60;;;;;;10417173;28;20116;-56
2022/03/04 22:48:21;;;;;;;4.10;2.72;;;17.50;58.50;;;;;;10417292;28;20036;-57
2022/03/04 22:53:21;;;;;;;4.15;2.40;;;17.50;58.30;;;;;;10416638;28;20360;-57
2022/03/04 22:58:22;;;;;;;3.28;2.08;;;17.40;58.40;;;;;;10423223;28;20431;-57
2022/03/04 23:08:44;;;;;;;3.33;2.10;;;17.40;58.50;;;;;;10429473;28;20038;-57
2022/03/04 23:13:45;;;;;;;3.22;2.20;;;17.40;58.30;;;;;;10432654;28;20041;-57
2022/03/04 23:18:46;;;;;;;4.85;2.55;;;17.50;58.80;;;;;;10432504;28;20036;-56
2022/03/04 23:23:47;;;;;;;2.72;1.70;;;17.50;58.10;;;;;;10415838;28;20022;-57
2022/03/04 23:28:49;;;;;;;3.17;1.70;;;17.50;58.10;;;;;;10416387;28;20467;-57
2022/03/04 23:33:50;;;;;;;3.70;2.33;;;17.40;58.10;;;;;;10415097;28;20057;-57
2022/03/04 23:38:51;;;;;;;2.53;2.05;;;17.40;58.20;;;;;;10401786;28;20045;-57
2022/03/04 23:43:52;;;;;;;3.83;2.50;;;17.50;58.10;;;;;;10406940;28;20034;-57
2022/03/04 23:48:53;;;;;;;3.80;2.05;;;17.50;57.80;;;;;;10431518;28;20108;-57
2022/03/04 23:53:53;;;;;;;3.28;2.10;;;17.60;57.70;;;;;;10422898;28;20113;-57
2022/03/04 23:58:54;;;;;;;2.88;2.17;;;17.50;57.90;;;;;;10417455;28;20096;-57
